createdAt,value
2022-11-18T00:00:12.988Z,84.10
2022-11-18T00:01:12.819Z,84.50
2022-11-18T00:02:13.998Z,84.20
2022-11-18T00:03:13.465Z,83.60
2022-11-18T00:04:13.450Z,83.30
2022-11-18T00:05:13.737Z,83.40
2022-11-18T00:06:13.771Z,83.90
2022-11-18T00:07:13.682Z,84.10
2022-11-18T00:08:14.471Z,84.70
2022-11-18T00:09:13.476Z,85.60
2022-11-18T00:10:13.774Z,85.20
2022-11-18T00:11:13.803Z,84.80
2022-11-18T00:12:13.902Z,84.90
2022-11-18T00:13:13.187Z,84.50
2022-11-18T00:14:13.134Z,84.10
2022-11-18T00:15:13.616Z,84.40
2022-11-18T00:16:13.478Z,84.80
2022-11-18T00:17:13.428Z,85.30
2022-11-18T00:18:13.332Z,84.90
2022-11-18T00:19:13.205Z,85.00
2022-11-18T00:20:13.151Z,84.80
2022-11-18T00:21:13.257Z,84.40
2022-11-18T00:22:13.166Z,84.60
2022-11-18T00:23:13.465Z,84.40
2022-11-18T00:24:13.506Z,84.50
2022-11-18T00:25:13.808Z,85.00
2022-11-18T00:26:14.265Z,84.80
2022-11-18T00:27:13.176Z,84.90
2022-11-18T00:28:13.063Z,84.80
2022-11-18T00:29:13.106Z,84.40
2022-11-18T00:30:13.004Z,85.00
2022-11-18T00:31:12.912Z,84.70
2022-11-18T00:32:12.975Z,84.50
2022-11-18T00:33:13.037Z,84.70
2022-11-18T00:34:12.996Z,84.40
2022-11-18T00:35:12.913Z,83.80
2022-11-18T00:36:12.991Z,84.20
2022-11-18T00:37:12.915Z,84.20
2022-11-18T00:38:12.789Z,84.10
2022-11-18T00:39:13.716Z,83.80
2022-11-18T00:40:13.650Z,83.80
2022-11-18T00:41:13.800Z,83.50
2022-11-18T00:42:13.777Z,83.80
2022-11-18T00:43:13.752Z,83.80
2022-11-18T00:44:13.631Z,83.30
2022-11-18T00:45:14.684Z,83.10
2022-11-18T00:46:13.605Z,83.00
2022-11-18T00:47:13.428Z,82.80
2022-11-18T00:48:13.466Z,83.40
2022-11-18T00:49:13.599Z,83.50
2022-11-18T00:50:13.871Z,83.70
2022-11-18T00:51:13.971Z,83.40
2022-11-18T00:52:12.977Z,83.30
2022-11-18T00:53:13.222Z,83.50
2022-11-18T00:54:13.506Z,83.40
2022-11-18T00:55:13.804Z,83.60
2022-11-18T00:56:14.081Z,83.20
2022-11-18T00:57:13.021Z,82.80
2022-11-18T00:58:13.302Z,83.20
2022-11-18T00:59:13.472Z,83.60
2022-11-18T01:00:13.637Z,84.00
2022-11-18T01:01:14.067Z,84.20
2022-11-18T01:02:13.370Z,84.00
2022-11-18T01:03:13.475Z,83.50
2022-11-18T01:04:13.757Z,83.40
2022-11-18T01:05:13.870Z,83.20
2022-11-18T01:06:13.957Z,82.70
2022-11-18T01:07:12.892Z,82.80
2022-11-18T01:08:12.815Z,82.20
2022-11-18T01:09:14.369Z,82.00
2022-11-18T01:10:13.512Z,81.80
2022-11-18T01:11:13.390Z,82.20
2022-11-18T01:12:13.381Z,83.80
2022-11-18T01:13:13.547Z,84.10
2022-11-18T01:14:13.811Z,83.50
2022-11-18T01:15:13.757Z,83.10
2022-11-18T01:16:13.627Z,83.00
2022-11-18T01:17:13.538Z,83.10
2022-11-18T01:18:15.054Z,83.00
2022-11-18T01:19:13.152Z,84.50
2022-11-18T01:20:13.199Z,85.30
2022-11-18T01:21:13.201Z,85.40
2022-11-18T01:22:13.045Z,85.30
2022-11-18T01:23:13.107Z,85.30
2022-11-18T01:24:13.052Z,85.40
2022-11-18T01:25:12.988Z,85.30
2022-11-18T01:26:13.227Z,84.90
2022-11-18T01:27:13.303Z,84.60
2022-11-18T01:28:15.453Z,84.60
2022-11-18T01:29:13.551Z,84.60
2022-11-18T01:30:13.445Z,84.40
2022-11-18T01:31:13.400Z,84.30
2022-11-18T01:32:25.351Z,84.50
2022-11-18T01:33:13.719Z,85.00
2022-11-18T01:34:13.649Z,85.60
2022-11-18T01:35:13.810Z,85.70
2022-11-18T01:36:13.691Z,85.80
2022-11-18T01:37:19.273Z,85.80
2022-11-18T01:38:13.136Z,85.70
2022-11-18T01:39:13.082Z,85.60
2022-11-18T01:40:13.219Z,85.70
2022-11-18T01:41:13.109Z,86.40
2022-11-18T01:42:13.064Z,86.60
2022-11-18T01:43:12.998Z,86.40
2022-11-18T01:44:12.936Z,86.40
2022-11-18T01:45:12.945Z,86.10
2022-11-18T01:46:12.904Z,86.00
2022-11-18T01:47:13.000Z,85.90
2022-11-18T01:48:12.959Z,85.80
2022-11-18T01:49:12.994Z,85.40
2022-11-18T01:50:13.014Z,85.30
2022-11-18T01:51:13.132Z,85.30
2022-11-18T01:52:13.074Z,85.30
2022-11-18T01:53:13.074Z,85.80
2022-11-18T01:54:13.310Z,86.00
2022-11-18T01:55:13.287Z,85.60
2022-11-18T01:56:13.345Z,85.90
2022-11-18T01:57:13.383Z,85.90
2022-11-18T01:58:13.400Z,86.00
2022-11-18T01:59:13.353Z,85.40
2022-11-18T02:00:13.464Z,85.00
2022-11-18T02:01:13.704Z,84.70
2022-11-18T02:02:14.013Z,84.30
2022-11-18T02:03:13.420Z,84.30
2022-11-18T02:04:13.496Z,85.00
2022-11-18T02:05:13.724Z,85.70
2022-11-18T02:06:13.734Z,86.60
2022-11-18T02:07:13.875Z,87.30
2022-11-18T02:08:13.404Z,88.00
2022-11-18T02:09:13.408Z,88.40
2022-11-18T02:10:13.750Z,88.20
2022-11-18T02:11:13.938Z,88.20
2022-11-18T02:12:12.920Z,88.40
2022-11-18T02:13:13.081Z,88.90
2022-11-18T02:14:13.042Z,88.90
2022-11-18T02:15:12.999Z,89.50
2022-11-18T02:16:12.908Z,90.20
2022-11-18T02:17:12.919Z,90.20
2022-11-18T02:18:13.025Z,91.00
2022-11-18T02:19:13.046Z,91.00
2022-11-18T02:20:13.350Z,91.20
2022-11-18T02:21:13.824Z,91.50
2022-11-18T02:22:14.070Z,91.80
2022-11-18T02:23:13.178Z,92.20
2022-11-18T02:24:13.220Z,92.30
2022-11-18T02:25:13.110Z,92.50
2022-11-18T02:26:13.047Z,92.50
2022-11-18T02:27:13.277Z,92.70
2022-11-18T02:28:13.219Z,93.20
2022-11-18T02:29:13.102Z,93.40
2022-11-18T02:30:13.203Z,93.50
2022-11-18T02:31:13.123Z,93.80
2022-11-18T02:32:13.448Z,93.60
2022-11-18T02:33:13.562Z,93.40
2022-11-18T02:34:13.650Z,94.10
2022-11-18T02:35:13.593Z,94.70
2022-11-18T02:36:13.590Z,95.00
2022-11-18T02:37:13.497Z,94.20
2022-11-18T02:38:13.358Z,93.90
2022-11-18T02:39:13.676Z,93.60
2022-11-18T02:40:13.648Z,94.20
2022-11-18T02:41:13.531Z,94.00
2022-11-18T02:42:13.389Z,94.70
2022-11-18T02:43:13.322Z,95.00
2022-11-18T02:44:13.442Z,95.30
2022-11-18T02:45:13.609Z,95.20
2022-11-18T02:46:13.951Z,94.70
2022-11-18T02:47:12.992Z,94.60
2022-11-18T02:48:13.031Z,94.50
2022-11-18T02:49:12.945Z,94.00
2022-11-18T02:50:12.998Z,94.10
2022-11-18T02:51:13.107Z,93.60
2022-11-18T02:52:13.008Z,93.30
2022-11-18T02:53:12.968Z,93.00
2022-11-18T02:54:12.898Z,93.00
2022-11-18T02:55:12.800Z,93.00
2022-11-18T02:56:13.727Z,92.70
2022-11-18T02:57:13.735Z,92.30
2022-11-18T02:58:13.609Z,92.40
2022-11-18T02:59:13.558Z,92.20
2022-11-18T03:00:13.575Z,92.80
2022-11-18T03:01:13.566Z,93.80
2022-11-18T03:02:13.709Z,94.10
2022-11-18T03:03:13.582Z,93.80
2022-11-18T03:04:13.920Z,94.10
2022-11-18T03:05:13.154Z,94.10
2022-11-18T03:06:13.362Z,94.00
2022-11-18T03:07:13.420Z,93.80
2022-11-18T03:08:13.367Z,93.30
2022-11-18T03:09:13.477Z,93.10
2022-11-18T03:10:13.422Z,93.50
2022-11-18T03:11:13.703Z,93.70
2022-11-18T03:12:13.691Z,93.40
2022-11-18T03:13:13.712Z,93.30
2022-11-18T03:14:14.065Z,93.80
2022-11-18T03:15:12.948Z,94.10
2022-11-18T03:16:12.930Z,94.10
2022-11-18T03:17:12.801Z,94.20
2022-11-18T03:18:13.594Z,94.30
2022-11-18T03:19:13.542Z,94.40
2022-11-18T03:20:13.415Z,95.40
2022-11-18T03:21:13.319Z,95.80
2022-11-18T03:22:13.262Z,96.10
2022-11-18T03:23:13.398Z,96.10
2022-11-18T03:24:13.411Z,95.70
2022-11-18T03:25:13.381Z,95.00
2022-11-18T03:26:13.272Z,94.30
2022-11-18T03:27:13.552Z,93.90
2022-11-18T03:28:13.696Z,93.90
2022-11-18T03:29:13.616Z,94.40
2022-11-18T03:30:13.622Z,94.40
2022-11-18T03:31:13.837Z,94.50
2022-11-18T03:32:13.779Z,94.50
2022-11-18T03:33:14.102Z,94.50
2022-11-18T03:34:13.066Z,94.80
2022-11-18T03:35:13.247Z,94.70
2022-11-18T03:36:13.190Z,94.20
2022-11-18T03:37:13.081Z,94.20
2022-11-18T03:38:13.335Z,93.90
2022-11-18T03:39:13.562Z,93.70
2022-11-18T03:40:13.559Z,93.80
2022-11-18T03:41:13.392Z,94.20
2022-11-18T03:42:13.403Z,94.00
2022-11-18T03:43:13.209Z,94.00
2022-11-18T03:44:13.305Z,93.80
2022-11-18T03:45:13.293Z,93.80
2022-11-18T03:46:13.191Z,93.60
2022-11-18T03:47:13.267Z,93.60
2022-11-18T03:48:13.283Z,93.40
2022-11-18T03:49:13.324Z,93.70
2022-11-18T03:50:13.319Z,93.50
2022-11-18T03:51:13.265Z,93.10
2022-11-18T03:52:13.200Z,93.10
2022-11-18T03:53:13.111Z,93.30
2022-11-18T03:54:12.930Z,93.40
2022-11-18T03:55:12.865Z,93.40
2022-11-18T03:56:17.385Z,93.80
2022-11-18T03:57:13.554Z,94.10
2022-11-18T03:58:13.741Z,94.50
2022-11-18T03:59:13.683Z,95.00
2022-11-18T04:00:13.772Z,94.70
2022-11-18T04:01:14.006Z,94.50
2022-11-18T04:02:13.176Z,94.50
2022-11-18T04:03:13.145Z,94.30
2022-11-18T04:04:13.106Z,94.00
2022-11-18T04:05:13.050Z,93.70
2022-11-18T04:06:13.046Z,94.10
2022-11-18T04:07:13.280Z,94.40
2022-11-18T04:08:13.316Z,94.20
2022-11-18T04:09:13.233Z,94.00
2022-11-18T04:10:13.198Z,94.10
2022-11-18T04:11:13.300Z,93.80
2022-11-18T04:12:13.202Z,93.80
2022-11-18T04:13:13.419Z,94.50
2022-11-18T04:14:13.324Z,94.20
2022-11-18T04:15:13.444Z,93.90
2022-11-18T04:16:13.640Z,93.90
2022-11-18T04:17:13.763Z,94.00
2022-11-18T04:18:13.734Z,94.50
2022-11-18T04:19:13.706Z,94.60
2022-11-18T04:20:13.609Z,95.00
2022-11-18T04:21:13.699Z,95.20
2022-11-18T04:22:13.674Z,95.00
2022-11-18T04:23:13.595Z,95.30
2022-11-18T04:24:13.683Z,95.30
2022-11-18T04:25:13.554Z,95.30
2022-11-18T04:26:13.430Z,95.50
2022-11-18T04:27:13.337Z,95.70
2022-11-18T04:28:13.267Z,95.70
2022-11-18T04:29:13.308Z,95.80
2022-11-18T04:30:13.306Z,95.60
2022-11-18T04:31:13.251Z,95.70
2022-11-18T04:32:13.175Z,96.10
2022-11-18T04:33:13.106Z,96.40
2022-11-18T04:34:18.149Z,96.50
2022-11-18T04:35:12.995Z,96.30
2022-11-18T04:36:12.797Z,96.50
2022-11-18T04:37:14.181Z,96.20
2022-11-18T04:38:16.546Z,96.10
2022-11-18T04:39:13.422Z,96.20
2022-11-18T04:40:13.548Z,96.50
2022-11-18T04:41:13.540Z,96.40
2022-11-18T04:42:13.452Z,96.50
2022-11-18T04:43:13.704Z,96.50
2022-11-18T04:44:13.601Z,96.20
2022-11-18T04:45:13.683Z,95.80
2022-11-18T04:46:13.861Z,95.60
2022-11-18T04:47:13.880Z,95.70
2022-11-18T04:48:13.880Z,95.70
2022-11-18T04:49:13.815Z,95.60
2022-11-18T04:50:13.618Z,96.10
2022-11-18T04:51:13.511Z,96.30
2022-11-18T04:52:13.444Z,96.30
2022-11-18T04:53:13.453Z,96.50
2022-11-18T04:54:13.399Z,96.60
2022-11-18T04:55:13.553Z,96.80
2022-11-18T04:56:13.676Z,96.90
2022-11-18T04:57:13.536Z,96.90
2022-11-18T04:58:13.617Z,96.80
2022-11-18T04:59:13.715Z,96.20
2022-11-18T05:00:13.603Z,96.10
2022-11-18T05:01:13.790Z,96.00
2022-11-18T05:02:13.897Z,95.80
2022-11-18T05:03:13.104Z,95.70
2022-11-18T05:04:13.163Z,95.50
2022-11-18T05:05:13.165Z,95.50
2022-11-18T05:06:13.215Z,95.20
2022-11-18T05:07:13.117Z,95.20
2022-11-18T05:08:13.051Z,95.20
2022-11-18T05:09:13.318Z,94.80
2022-11-18T05:10:13.399Z,95.00
2022-11-18T05:11:13.297Z,94.80
2022-11-18T05:12:13.223Z,94.40
2022-11-18T05:13:13.547Z,94.70
2022-11-18T05:14:13.667Z,94.80
2022-11-18T05:15:13.733Z,94.40
2022-11-18T05:16:13.659Z,94.50
2022-11-18T05:17:13.944Z,94.40
2022-11-18T05:18:12.831Z,94.40
2022-11-18T05:19:14.198Z,94.10
2022-11-18T05:20:13.634Z,93.90
2022-11-18T05:21:13.560Z,94.10
2022-11-18T05:22:13.681Z,94.20
2022-11-18T05:23:13.964Z,94.10
2022-11-18T05:24:13.059Z,94.00
2022-11-18T05:25:13.468Z,93.90
2022-11-18T05:26:13.362Z,93.80
2022-11-18T05:27:13.232Z,93.50
2022-11-18T05:28:13.205Z,93.40
2022-11-18T05:29:13.127Z,93.60
2022-11-18T05:30:12.978Z,93.20
2022-11-18T05:31:13.161Z,93.20
2022-11-18T05:32:13.002Z,93.50
2022-11-18T05:33:13.040Z,93.50
2022-11-18T05:34:12.903Z,93.70
2022-11-18T05:35:12.812Z,93.80
2022-11-18T05:36:13.712Z,93.70
2022-11-18T05:37:13.858Z,93.80
2022-11-18T05:38:14.107Z,93.80
2022-11-18T05:39:13.407Z,93.80
2022-11-18T05:40:13.384Z,93.50
2022-11-18T05:41:13.466Z,93.70
2022-11-18T05:42:13.813Z,93.80
2022-11-18T05:43:13.668Z,93.70
2022-11-18T05:44:13.734Z,93.60
2022-11-18T05:45:13.870Z,93.50
2022-11-18T05:46:13.987Z,93.50
2022-11-18T05:47:12.875Z,93.40
2022-11-18T05:48:14.110Z,93.40
2022-11-18T05:49:13.056Z,93.50
2022-11-18T05:50:16.108Z,93.50
2022-11-18T05:51:13.869Z,93.70
2022-11-18T05:52:13.759Z,93.90
2022-11-18T05:53:13.766Z,94.10
2022-11-18T05:54:13.695Z,94.10
2022-11-18T05:55:13.612Z,93.90
2022-11-18T05:56:50.299Z,94.10
2022-11-18T05:57:14.034Z,94.20
2022-11-18T05:58:13.336Z,94.10
2022-11-18T05:59:13.410Z,94.00
2022-11-18T06:00:13.460Z,94.00
2022-11-18T06:01:13.379Z,94.00
2022-11-18T06:02:13.492Z,94.20
2022-11-18T06:03:13.561Z,94.10
2022-11-18T06:04:13.945Z,94.00
2022-11-18T06:05:13.047Z,94.30
2022-11-18T06:06:12.886Z,93.90
2022-11-18T06:07:14.120Z,94.00
2022-11-18T06:08:13.170Z,93.70
2022-11-18T06:09:13.095Z,93.70
2022-11-18T06:10:12.956Z,93.30
2022-11-18T06:11:13.345Z,93.70
2022-11-18T06:12:13.504Z,93.30
2022-11-18T06:13:13.978Z,92.80
2022-11-18T06:14:13.160Z,92.60
2022-11-18T06:15:13.105Z,92.50
2022-11-18T06:16:13.123Z,92.30
2022-11-18T06:17:12.945Z,92.80
2022-11-18T06:18:12.869Z,92.90
2022-11-18T06:19:13.790Z,92.70
2022-11-18T06:20:13.757Z,92.20
2022-11-18T06:21:13.893Z,91.90
2022-11-18T06:22:13.877Z,92.00
2022-11-18T06:23:14.097Z,92.10
2022-11-18T06:24:13.145Z,91.70
2022-11-18T06:25:30.207Z,91.40
2022-11-18T06:26:19.762Z,91.60
2022-11-18T06:27:13.827Z,91.80
2022-11-18T06:28:13.737Z,92.40
2022-11-18T06:29:14.844Z,92.30
2022-11-18T06:30:13.071Z,92.00
2022-11-18T06:31:13.350Z,92.40
2022-11-18T06:32:18.455Z,92.30
2022-11-18T06:33:13.387Z,92.20
2022-11-18T06:34:13.371Z,92.30
2022-11-18T06:35:13.215Z,92.30
2022-11-18T06:36:18.264Z,92.00
2022-11-18T06:37:13.305Z,91.90
2022-11-18T06:38:13.420Z,92.10
2022-11-18T06:39:13.708Z,92.40
2022-11-18T06:40:13.905Z,92.60
2022-11-18T06:41:13.526Z,92.50
2022-11-18T06:42:13.457Z,92.50
2022-11-18T06:43:13.627Z,92.70
2022-11-18T06:44:13.570Z,93.10
2022-11-18T06:45:13.832Z,93.00
2022-11-18T06:46:17.873Z,93.00
2022-11-18T06:47:13.690Z,93.20
2022-11-18T06:48:13.710Z,93.50
2022-11-18T06:49:13.571Z,93.20
2022-11-18T06:50:13.787Z,93.20
2022-11-18T06:51:13.718Z,93.30
2022-11-18T06:52:13.586Z,93.80
2022-11-18T06:53:13.473Z,93.90
2022-11-18T06:54:13.508Z,93.80
2022-11-18T06:55:13.535Z,93.40
2022-11-18T06:56:13.465Z,93.20
2022-11-18T06:57:13.325Z,93.10
2022-11-18T06:58:13.261Z,93.40
2022-11-18T06:59:13.177Z,93.00
2022-11-18T07:00:13.353Z,92.80
2022-11-18T07:01:34.879Z,92.40
2022-11-18T07:02:12.904Z,92.90
2022-11-18T07:03:12.815Z,93.00
2022-11-18T07:04:13.736Z,92.60
2022-11-18T07:05:13.787Z,92.70
2022-11-18T07:06:13.823Z,92.80
2022-11-18T07:07:13.889Z,92.20
2022-11-18T07:08:12.863Z,91.80
2022-11-18T07:09:13.841Z,92.00
2022-11-18T07:10:14.119Z,92.10
2022-11-18T07:11:13.155Z,92.80
2022-11-18T07:12:13.193Z,93.10
2022-11-18T07:13:13.518Z,93.00
2022-11-18T07:14:13.761Z,93.40
2022-11-18T07:15:13.766Z,93.90
2022-11-18T07:16:13.826Z,93.90
2022-11-18T07:17:13.719Z,93.70
2022-11-18T07:18:14.028Z,93.80
2022-11-18T07:19:13.367Z,93.80
2022-11-18T07:20:13.585Z,94.00
2022-11-18T07:21:13.816Z,94.30
2022-11-18T07:22:13.928Z,93.90
2022-11-18T07:23:13.063Z,93.70
2022-11-18T07:24:13.397Z,93.50
2022-11-18T07:25:13.563Z,93.10
2022-11-18T07:26:13.501Z,92.80
2022-11-18T07:27:13.502Z,92.80
2022-11-18T07:28:13.476Z,93.10
2022-11-18T07:29:13.471Z,93.40
2022-11-18T07:30:13.458Z,93.40
2022-11-18T07:31:13.878Z,93.20
2022-11-18T07:32:14.176Z,92.60
2022-11-18T07:33:13.132Z,92.90
2022-11-18T07:34:13.259Z,93.10
2022-11-18T07:35:13.381Z,93.20
2022-11-18T07:36:13.359Z,93.20
2022-11-18T07:37:13.565Z,93.40
2022-11-18T07:38:13.639Z,93.60
2022-11-18T07:39:13.861Z,93.70
2022-11-18T07:40:14.117Z,93.90
2022-11-18T07:41:13.188Z,93.80
2022-11-18T07:42:13.172Z,93.70
2022-11-18T07:43:13.671Z,93.80
2022-11-18T07:44:13.061Z,94.10
2022-11-18T07:45:13.157Z,93.90
2022-11-18T07:46:13.961Z,94.10
2022-11-18T07:47:13.580Z,94.10
2022-11-18T07:48:13.464Z,94.10
2022-11-18T07:49:13.614Z,94.20
2022-11-18T07:50:14.117Z,94.10
2022-11-18T07:51:13.099Z,94.30
2022-11-18T07:52:13.035Z,94.20
2022-11-18T07:53:12.879Z,94.20
2022-11-18T07:54:18.814Z,94.10
2022-11-18T07:55:12.866Z,93.90
2022-11-18T07:56:14.727Z,94.00
2022-11-18T07:57:13.655Z,93.70
2022-11-18T07:58:13.821Z,93.80
2022-11-18T07:59:13.795Z,93.80
2022-11-18T08:00:14.072Z,93.50
2022-11-18T08:01:13.051Z,93.00
2022-11-18T08:02:13.033Z,93.00
2022-11-18T08:03:14.543Z,93.10
2022-11-18T08:04:13.644Z,92.90
2022-11-18T08:05:17.919Z,92.90
2022-11-18T08:06:13.435Z,93.30
2022-11-18T08:07:13.750Z,92.80
2022-11-18T08:08:13.842Z,92.60
2022-11-18T08:09:14.364Z,92.40
2022-11-18T08:10:13.336Z,92.10
2022-11-18T08:11:16.263Z,91.70
2022-11-18T08:12:13.574Z,91.70
2022-11-18T08:13:13.621Z,92.30
2022-11-18T08:14:13.532Z,92.10
2022-11-18T08:15:13.657Z,91.90
2022-11-18T08:16:13.574Z,91.80
2022-11-18T08:17:13.470Z,91.70
2022-11-18T08:18:13.976Z,91.10
2022-11-18T08:19:13.133Z,90.70
2022-11-18T08:20:12.954Z,91.10
2022-11-18T08:21:12.825Z,91.10
2022-11-18T08:22:13.868Z,91.50
2022-11-18T08:23:13.756Z,91.40
2022-11-18T08:24:13.639Z,91.10
2022-11-18T08:25:13.957Z,90.80
2022-11-18T08:26:13.003Z,90.50
2022-11-18T08:27:12.933Z,90.80
2022-11-18T08:28:13.221Z,90.60
2022-11-18T08:29:13.370Z,90.70
2022-11-18T08:30:13.504Z,90.50
2022-11-18T08:31:13.549Z,90.50
2022-11-18T08:32:13.399Z,90.30
2022-11-18T08:33:13.543Z,90.50
2022-11-18T08:34:13.701Z,90.60
2022-11-18T08:35:14.067Z,90.70
2022-11-18T08:36:13.389Z,90.50
2022-11-18T08:37:13.636Z,90.60
2022-11-18T08:38:14.624Z,90.90
2022-11-18T08:39:13.801Z,90.20
2022-11-18T08:40:14.020Z,90.90
2022-11-18T08:41:13.039Z,91.00
2022-11-18T08:42:12.929Z,90.60
2022-11-18T08:43:12.855Z,90.70
2022-11-18T08:44:14.115Z,91.50
2022-11-18T08:45:13.306Z,91.40
2022-11-18T08:46:13.323Z,91.40
2022-11-18T08:47:13.213Z,91.40
2022-11-18T08:48:13.267Z,91.80
2022-11-18T08:49:13.365Z,92.30
2022-11-18T08:50:13.991Z,91.90
2022-11-18T08:51:13.180Z,91.60
2022-11-18T08:52:13.460Z,91.10
2022-11-18T08:53:13.684Z,90.90
2022-11-18T08:54:13.840Z,90.80
2022-11-18T08:55:13.894Z,90.60
2022-11-18T08:56:13.039Z,91.10
2022-11-18T08:57:13.290Z,90.30
2022-11-18T08:58:13.229Z,90.70
2022-11-18T08:59:13.763Z,90.20
2022-11-18T09:00:13.844Z,90.40
2022-11-18T09:01:13.827Z,89.80
2022-11-18T09:02:13.004Z,89.80
2022-11-18T09:03:13.041Z,89.50
2022-11-18T09:04:13.071Z,89.60
2022-11-18T09:05:13.142Z,89.40
2022-11-18T09:06:13.624Z,89.40
2022-11-18T09:07:13.569Z,89.00
2022-11-18T09:08:13.599Z,89.00
2022-11-18T09:09:13.467Z,88.90
2022-11-18T09:10:13.622Z,90.70
2022-11-18T09:11:13.470Z,90.70
2022-11-18T09:12:13.352Z,90.40
2022-11-18T09:13:40.377Z,90.20
2022-11-18T09:15:11.958Z,89.80
2022-11-18T09:15:14.903Z,89.30
2022-11-18T09:16:13.302Z,89.80
2022-11-18T09:17:13.236Z,90.80
2022-11-18T09:18:13.542Z,90.40
2022-11-18T09:19:40.115Z,90.00
2022-11-18T09:20:13.035Z,90.90
2022-11-18T09:21:13.252Z,90.30
2022-11-18T09:22:13.200Z,90.50
2022-11-18T09:23:13.149Z,89.90
2022-11-18T09:24:12.995Z,90.10
2022-11-18T09:25:12.858Z,90.50
2022-11-18T09:26:13.857Z,90.30
2022-11-18T09:27:16.981Z,89.80
2022-11-18T09:28:13.510Z,90.10
2022-11-18T09:29:13.566Z,90.40
2022-11-18T09:30:13.875Z,90.50
2022-11-18T09:31:14.280Z,90.70
2022-11-18T09:32:13.424Z,90.70
2022-11-18T09:33:16.607Z,91.40
2022-11-18T09:34:13.417Z,91.30
2022-11-18T09:35:13.360Z,91.30
2022-11-18T09:36:13.394Z,91.30
2022-11-18T09:37:13.209Z,91.40
2022-11-18T09:38:13.135Z,91.20
2022-11-18T09:39:13.117Z,90.80
2022-11-18T09:40:13.194Z,90.60
2022-11-18T09:41:13.058Z,91.00
2022-11-18T09:42:13.095Z,91.10
2022-11-18T09:43:13.002Z,91.10
2022-11-18T09:44:12.869Z,91.30
2022-11-18T09:45:16.158Z,91.30
2022-11-18T09:46:13.299Z,91.20
2022-11-18T09:47:13.238Z,91.40
2022-11-18T09:48:13.244Z,91.50
2022-11-18T09:49:13.226Z,91.20
2022-11-18T09:50:41.685Z,91.10
2022-11-18T09:51:13.417Z,91.50
2022-11-18T09:52:13.537Z,91.80
2022-11-18T09:53:13.962Z,90.90
2022-11-18T09:54:13.146Z,90.80
2022-11-18T09:55:13.187Z,90.90
2022-11-18T09:56:13.572Z,91.10
2022-11-18T09:57:13.715Z,91.30
2022-11-18T09:58:13.925Z,90.90
2022-11-18T09:59:13.129Z,90.50
2022-11-18T10:00:12.991Z,90.60
2022-11-18T10:01:12.924Z,90.50
2022-11-18T10:02:12.926Z,90.50
2022-11-18T10:03:13.002Z,90.70
2022-11-18T10:04:13.021Z,90.40
2022-11-18T10:05:12.838Z,90.60
2022-11-18T10:06:14.643Z,90.00
2022-11-18T10:07:13.062Z,90.10
2022-11-18T10:09:22.187Z,89.90
2022-11-18T10:10:13.401Z,90.40
2022-11-18T10:11:13.322Z,90.90
2022-11-18T10:12:13.306Z,90.20
2022-11-18T10:13:13.275Z,89.90
2022-11-18T10:14:13.213Z,89.60
2022-11-18T10:15:13.248Z,89.40
2022-11-18T10:16:13.663Z,89.90
2022-11-18T10:17:14.021Z,90.20
2022-11-18T10:18:22.174Z,90.50
2022-11-18T10:19:12.889Z,90.60
2022-11-18T10:20:13.090Z,90.20
2022-11-18T10:21:13.530Z,90.60
2022-11-18T10:22:19.423Z,90.70
2022-11-18T10:23:13.703Z,89.80
2022-11-18T10:24:14.011Z,88.50
2022-11-18T10:25:13.060Z,89.70
2022-11-18T10:26:13.128Z,89.00
2022-11-18T10:27:13.256Z,88.20
2022-11-18T10:28:13.423Z,89.10
2022-11-18T10:29:13.311Z,88.80
2022-11-18T10:30:13.260Z,88.40
2022-11-18T10:31:13.531Z,88.20
2022-11-18T10:32:13.902Z,87.70
2022-11-18T10:33:12.823Z,87.70
2022-11-18T10:34:13.655Z,87.60
2022-11-18T10:35:13.532Z,87.50
2022-11-18T10:36:13.696Z,87.40
2022-11-18T10:37:13.580Z,87.10
2022-11-18T10:38:13.634Z,87.60
2022-11-18T10:39:13.682Z,87.90
2022-11-18T10:40:14.916Z,88.10
2022-11-18T10:41:12.920Z,88.20
2022-11-18T10:42:13.079Z,88.40
2022-11-18T10:43:13.050Z,87.50
2022-11-18T10:44:13.314Z,87.70
2022-11-18T10:45:13.382Z,87.40
2022-11-18T10:46:13.171Z,87.50
2022-11-18T10:47:13.267Z,86.70
2022-11-18T10:48:13.139Z,86.70
2022-11-18T10:49:13.070Z,86.40
2022-11-18T10:50:12.877Z,86.20
2022-11-18T10:51:25.065Z,86.10
2022-11-18T10:52:13.545Z,86.00
2022-11-18T10:53:35.445Z,86.10
2022-11-18T10:54:13.420Z,86.30
2022-11-18T10:55:13.374Z,85.40
2022-11-18T10:56:13.310Z,85.30
2022-11-18T10:57:13.247Z,84.80
2022-11-18T10:58:13.213Z,84.50
2022-11-18T10:59:13.478Z,84.50
2022-11-18T11:00:13.617Z,83.70
2022-11-18T11:01:14.295Z,82.50
2022-11-18T11:02:13.437Z,84.10
2022-11-18T11:03:13.354Z,83.40
2022-11-18T11:04:13.758Z,83.40
2022-11-18T11:05:13.728Z,83.40
2022-11-18T11:06:13.656Z,83.20
2022-11-18T11:07:13.833Z,84.40
2022-11-18T11:08:35.167Z,83.90
2022-11-18T11:09:13.706Z,83.70
2022-11-18T11:10:14.827Z,83.50
2022-11-18T11:11:13.863Z,82.10
2022-11-18T11:12:13.795Z,82.20
2022-11-18T11:13:13.979Z,82.70
2022-11-18T11:14:13.662Z,82.90
2022-11-18T11:15:13.755Z,82.80
2022-11-18T11:16:13.643Z,82.00
2022-11-18T11:17:13.669Z,81.20
2022-11-18T11:18:13.913Z,81.10
2022-11-18T11:19:13.171Z,78.70
2022-11-18T11:20:13.376Z,76.40
2022-11-18T11:21:13.597Z,71.10
2022-11-18T11:22:14.122Z,68.60
2022-11-18T11:23:13.221Z,67.90
2022-11-18T11:24:13.399Z,68.40
2022-11-18T11:25:13.370Z,66.80
2022-11-18T11:29:12.967Z,70.00
2022-11-18T11:30:12.952Z,71.90
2022-11-18T11:31:12.824Z,71.20
2022-11-18T11:32:13.790Z,73.50
2022-11-18T11:33:13.603Z,72.70
2022-11-18T11:34:19.269Z,73.20
2022-11-18T11:35:13.166Z,75.00
2022-11-18T11:36:13.249Z,76.00
2022-11-18T11:37:13.075Z,75.00
2022-11-18T11:38:13.390Z,75.60
2022-11-18T11:39:13.236Z,76.20
2022-11-18T11:40:18.343Z,77.10
2022-11-18T11:41:13.804Z,75.80
2022-11-18T11:42:13.938Z,74.90
2022-11-18T11:43:13.327Z,76.00
2022-11-18T11:44:13.541Z,75.00
2022-11-18T11:45:13.455Z,75.10
2022-11-18T11:46:13.319Z,75.10
2022-11-18T11:47:13.428Z,75.50
2022-11-18T11:48:13.455Z,75.60
2022-11-18T11:49:13.497Z,75.10
2022-11-18T11:50:13.422Z,74.10
2022-11-18T11:51:13.284Z,73.10
2022-11-18T11:52:13.145Z,72.90
2022-11-18T11:53:14.387Z,70.10
2022-11-18T11:54:13.291Z,70.90
2022-11-18T11:55:13.148Z,75.00
2022-11-18T11:56:15.147Z,74.70
2022-11-18T11:57:13.057Z,74.90
2022-11-18T11:58:13.205Z,75.50
2022-11-18T11:59:13.026Z,74.90
2022-11-18T12:00:12.961Z,75.50
2022-11-18T12:01:12.988Z,76.50
2022-11-18T12:02:13.161Z,75.10
2022-11-18T12:03:13.258Z,75.00
2022-11-18T12:04:13.218Z,74.10
2022-11-18T12:05:13.183Z,74.60
2022-11-18T12:06:13.182Z,76.10
2022-11-18T12:07:13.147Z,74.70
2022-11-18T12:08:13.116Z,74.20
2022-11-18T12:09:13.515Z,71.80
2022-11-18T12:10:13.667Z,69.60
2022-11-18T12:11:13.648Z,69.30
2022-11-18T12:12:13.635Z,68.30
2022-11-18T12:13:13.681Z,67.70
2022-11-18T12:14:13.644Z,67.30
2022-11-18T12:15:13.498Z,66.70
2022-11-18T12:16:13.707Z,68.20
2022-11-18T12:17:13.784Z,67.30
2022-11-18T12:18:14.028Z,67.10
2022-11-18T12:19:12.886Z,67.50
2022-11-18T12:20:18.138Z,65.40
2022-11-18T12:21:13.031Z,66.30
2022-11-18T12:22:13.308Z,65.40
2022-11-18T12:23:13.117Z,66.30
2022-11-18T12:24:13.041Z,66.20
2022-11-18T12:25:13.287Z,65.00
2022-11-18T12:26:13.244Z,64.10
2022-11-18T12:27:13.456Z,63.00
2022-11-18T12:28:13.329Z,63.90
2022-11-18T12:29:13.357Z,62.80
2022-11-18T12:30:13.536Z,60.80
2022-11-18T12:31:13.568Z,60.40
2022-11-18T12:32:14.040Z,62.00
2022-11-18T12:33:13.010Z,65.30
2022-11-18T12:34:13.098Z,65.60
2022-11-18T12:35:13.017Z,65.50
2022-11-18T12:36:13.287Z,67.20
2022-11-18T12:37:13.299Z,68.30
2022-11-18T12:38:13.556Z,66.10
2022-11-18T12:39:13.639Z,68.30
2022-11-18T12:40:13.589Z,69.50
2022-11-18T12:41:13.419Z,70.60
2022-11-18T12:42:13.331Z,70.30
2022-11-18T12:43:13.134Z,66.80
2022-11-18T12:44:13.223Z,64.10
2022-11-18T12:45:13.325Z,65.00
2022-11-18T12:46:13.232Z,64.10
2022-11-18T12:47:13.113Z,64.90
2022-11-18T12:48:13.210Z,66.50
2022-11-18T12:49:13.481Z,66.10
2022-11-18T12:50:13.372Z,67.80
2022-11-18T12:51:13.497Z,68.10
2022-11-18T12:52:13.640Z,68.60
2022-11-18T12:53:13.636Z,67.80
2022-11-18T12:54:13.942Z,68.40
2022-11-18T12:55:12.962Z,68.50
2022-11-18T12:56:13.256Z,69.70